sensor_id;sensor_type;location;lat;lon;timestamp;P1;durP1;ratioP1;P2;durP2;ratioP2
10134;SDS011;5107;48.850;8.924;2023-04-24T00:00:18;1.17;;;1.07;;
10134;SDS011;5107;48.850;8.924;2023-04-24T00:02:44;6.33;;;1.20;;
10134;SDS011;5107;48.850;8.924;2023-04-24T00:05:15;1.37;;;0.97;;
10134;SDS011;5107;48.850;8.924;2023-04-24T00:07:42;2.77;;;1.30;;
10134;SDS011;5107;48.850;8.924;2023-04-24T00:10:09;1.63;;;1.30;;
10134;SDS011;5107;48.850;8.924;2023-04-24T00:12:34;1.13;;;1.07;;
10134;SDS011;5107;48.850;8.924;2023-04-24T00:15:00;0.80;;;0.80;;
10134;SDS011;5107;48.850;8.924;2023-04-24T00:17:26;2.13;;;1.00;;
10134;SDS011;5107;48.850;8.924;2023-04-24T00:19:51;1.83;;;1.07;;
10134;SDS011;5107;48.850;8.924;2023-04-24T00:22:23;1.73;;;0.87;;
10134;SDS011;5107;48.850;8.924;2023-04-24T00:24:48;2.03;;;1.13;;
10134;SDS011;5107;48.850;8.924;2023-04-24T00:27:14;1.87;;;0.80;;
10134;SDS011;5107;48.850;8.924;2023-04-24T00:29:39;1.00;;;0.90;;
10134;SDS011;5107;48.850;8.924;2023-04-24T00:32:04;1.47;;;0.70;;
10134;SDS011;5107;48.850;8.924;2023-04-24T00:34:30;0.80;;;0.80;;
10134;SDS011;5107;48.850;8.924;2023-04-24T00:36:57;1.10;;;1.00;;
10134;SDS011;5107;48.850;8.924;2023-04-24T00:39:22;1.03;;;0.90;;
10134;SDS011;5107;48.850;8.924;2023-04-24T00:41:48;2.87;;;1.23;;
10134;SDS011;5107;48.850;8.924;2023-04-24T00:44:13;1.47;;;0.80;;
10134;SDS011;5107;48.850;8.924;2023-04-24T00:46:39;1.60;;;0.80;;
10134;SDS011;5107;48.850;8.924;2023-04-24T00:49:05;1.00;;;0.90;;
10134;SDS011;5107;48.850;8.924;2023-04-24T00:51:31;1.70;;;0.80;;
10134;SDS011;5107;48.850;8.924;2023-04-24T00:53:57;3.20;;;1.40;;
10134;SDS011;5107;48.850;8.924;2023-04-24T00:56:23;0.70;;;0.70;;
10134;SDS011;5107;48.850;8.924;2023-04-24T00:58:49;1.70;;;0.90;;
10134;SDS011;5107;48.850;8.924;2023-04-24T01:01:14;1.33;;;0.90;;
10134;SDS011;5107;48.850;8.924;2023-04-24T01:03:40;1.53;;;0.90;;
10134;SDS011;5107;48.850;8.924;2023-04-24T01:06:06;0.90;;;0.73;;
10134;SDS011;5107;48.850;8.924;2023-04-24T01:08:31;1.30;;;1.00;;
10134;SDS011;5107;48.850;8.924;2023-04-24T01:10:57;2.57;;;0.90;;
10134;SDS011;5107;48.850;8.924;2023-04-24T01:13:23;2.53;;;0.80;;
10134;SDS011;5107;48.850;8.924;2023-04-24T01:15:49;0.53;;;0.53;;
10134;SDS011;5107;48.850;8.924;2023-04-24T01:18:14;2.70;;;0.97;;
10134;SDS011;5107;48.850;8.924;2023-04-24T01:20:42;2.33;;;0.90;;
10134;SDS011;5107;48.850;8.924;2023-04-24T01:23:10;1.37;;;0.93;;
10134;SDS011;5107;48.850;8.924;2023-04-24T01:25:35;0.70;;;0.70;;
10134;SDS011;5107;48.850;8.924;2023-04-24T01:28:01;2.70;;;1.00;;
10134;SDS011;5107;48.850;8.924;2023-04-24T01:30:27;0.80;;;0.70;;
10134;SDS011;5107;48.850;8.924;2023-04-24T01:32:52;1.07;;;0.97;;
10134;SDS011;5107;48.850;8.924;2023-04-24T01:35:18;2.13;;;0.97;;
10134;SDS011;5107;48.850;8.924;2023-04-24T01:37:44;1.90;;;0.87;;
10134;SDS011;5107;48.850;8.924;2023-04-24T01:40:09;3.03;;;0.90;;
10134;SDS011;5107;48.850;8.924;2023-04-24T01:42:35;1.70;;;1.20;;
10134;SDS011;5107;48.850;8.924;2023-04-24T01:45:01;1.30;;;0.90;;
10134;SDS011;5107;48.850;8.924;2023-04-24T01:47:29;1.70;;;0.77;;
10134;SDS011;5107;48.850;8.924;2023-04-24T01:49:55;1.20;;;1.10;;
10134;SDS011;5107;48.850;8.924;2023-04-24T01:52:20;1.13;;;0.90;;
10134;SDS011;5107;48.850;8.924;2023-04-24T01:54:46;1.00;;;0.90;;
10134;SDS011;5107;48.850;8.924;2023-04-24T01:57:12;1.27;;;0.90;;
10134;SDS011;5107;48.850;8.924;2023-04-24T01:59:38;0.73;;;0.67;;
10134;SDS011;5107;48.850;8.924;2023-04-24T02:02:04;2.33;;;1.10;;
10134;SDS011;5107;48.850;8.924;2023-04-24T02:04:29;1.80;;;0.80;;
10134;SDS011;5107;48.850;8.924;2023-04-24T02:06:54;0.70;;;0.70;;
10134;SDS011;5107;48.850;8.924;2023-04-24T02:09:20;1.20;;;0.63;;
10134;SDS011;5107;48.850;8.924;2023-04-24T02:11:45;1.47;;;0.70;;
10134;SDS011;5107;48.850;8.924;2023-04-24T02:14:11;0.70;;;0.70;;
10134;SDS011;5107;48.850;8.924;2023-04-24T02:16:36;2.53;;;1.10;;
10134;SDS011;5107;48.850;8.924;2023-04-24T02:19:02;0.77;;;0.77;;
10134;SDS011;5107;48.850;8.924;2023-04-24T02:21:27;1.83;;;1.00;;
10134;SDS011;5107;48.850;8.924;2023-04-24T02:23:53;1.17;;;1.07;;
10134;SDS011;5107;48.850;8.924;2023-04-24T02:26:18;3.57;;;1.10;;
10134;SDS011;5107;48.850;8.924;2023-04-24T02:28:44;1.70;;;1.20;;
10134;SDS011;5107;48.850;8.924;2023-04-24T02:31:09;1.07;;;0.90;;
10134;SDS011;5107;48.850;8.924;2023-04-24T02:33:34;4.23;;;1.30;;
10134;SDS011;5107;48.850;8.924;2023-04-24T02:36:00;2.20;;;1.20;;
10134;SDS011;5107;48.850;8.924;2023-04-24T02:38:26;1.73;;;1.10;;
10134;SDS011;5107;48.850;8.924;2023-04-24T02:40:52;0.80;;;0.80;;
10134;SDS011;5107;48.850;8.924;2023-04-24T02:43:17;1.80;;;1.00;;
10134;SDS011;5107;48.850;8.924;2023-04-24T02:45:42;0.73;;;0.73;;
10134;SDS011;5107;48.850;8.924;2023-04-24T02:48:08;1.77;;;1.20;;
10134;SDS011;5107;48.850;8.924;2023-04-24T02:50:33;2.60;;;1.10;;
10134;SDS011;5107;48.850;8.924;2023-04-24T02:52:58;1.23;;;0.90;;
10134;SDS011;5107;48.850;8.924;2023-04-24T02:55:24;3.23;;;1.30;;
10134;SDS011;5107;48.850;8.924;2023-04-24T02:57:50;2.40;;;1.20;;
10134;SDS011;5107;48.850;8.924;2023-04-24T03:00:15;2.30;;;1.03;;
10134;SDS011;5107;48.850;8.924;2023-04-24T03:02:41;1.17;;;1.07;;
10134;SDS011;5107;48.850;8.924;2023-04-24T03:05:06;1.87;;;1.17;;
10134;SDS011;5107;48.850;8.924;2023-04-24T03:07:32;1.20;;;1.10;;
10134;SDS011;5107;48.850;8.924;2023-04-24T03:09:57;1.27;;;1.17;;
10134;SDS011;5107;48.850;8.924;2023-04-24T03:12:23;1.23;;;1.03;;
10134;SDS011;5107;48.850;8.924;2023-04-24T03:14:49;1.73;;;1.20;;
10134;SDS011;5107;48.850;8.924;2023-04-24T03:17:14;2.80;;;1.53;;
10134;SDS011;5107;48.850;8.924;2023-04-24T03:19:39;2.40;;;1.03;;
10134;SDS011;5107;48.850;8.924;2023-04-24T03:22:05;2.53;;;1.47;;
10134;SDS011;5107;48.850;8.924;2023-04-24T03:24:31;3.03;;;1.50;;
10134;SDS011;5107;48.850;8.924;2023-04-24T03:26:56;7.60;;;4.43;;
10134;SDS011;5107;48.850;8.924;2023-04-24T03:29:22;4.37;;;3.80;;
10134;SDS011;5107;48.850;8.924;2023-04-24T03:31:48;3.97;;;3.00;;
10134;SDS011;5107;48.850;8.924;2023-04-24T03:34:13;4.70;;;2.33;;
10134;SDS011;5107;48.850;8.924;2023-04-24T03:36:39;1.60;;;1.50;;
10134;SDS011;5107;48.850;8.924;2023-04-24T03:39:04;2.30;;;1.27;;
10134;SDS011;5107;48.850;8.924;2023-04-24T03:41:30;1.90;;;1.40;;
10134;SDS011;5107;48.850;8.924;2023-04-24T03:43:55;1.10;;;1.00;;
10134;SDS011;5107;48.850;8.924;2023-04-24T03:46:21;1.93;;;1.57;;
10134;SDS011;5107;48.850;8.924;2023-04-24T03:48:46;1.30;;;1.20;;
10134;SDS011;5107;48.850;8.924;2023-04-24T03:51:11;2.87;;;1.30;;
10134;SDS011;5107;48.850;8.924;2023-04-24T03:53:37;1.30;;;1.20;;
10134;SDS011;5107;48.850;8.924;2023-04-24T03:56:02;2.40;;;1.40;;
10134;SDS011;5107;48.850;8.924;2023-04-24T03:58:28;2.97;;;1.03;;
10134;SDS011;5107;48.850;8.924;2023-04-24T04:00:53;1.30;;;0.97;;
10134;SDS011;5107;48.850;8.924;2023-04-24T04:03:18;2.57;;;1.10;;
10134;SDS011;5107;48.850;8.924;2023-04-24T04:05:44;5.20;;;1.50;;
10134;SDS011;5107;48.850;8.924;2023-04-24T04:08:10;1.80;;;1.30;;
10134;SDS011;5107;48.850;8.924;2023-04-24T04:10:35;1.30;;;1.20;;
10134;SDS011;5107;48.850;8.924;2023-04-24T04:13:00;1.20;;;1.10;;
10134;SDS011;5107;48.850;8.924;2023-04-24T04:15:25;1.40;;;1.30;;
10134;SDS011;5107;48.850;8.924;2023-04-24T04:17:51;1.77;;;1.10;;
10134;SDS011;5107;48.850;8.924;2023-04-24T04:20:16;1.87;;;1.00;;
10134;SDS011;5107;48.850;8.924;2023-04-24T04:22:42;1.30;;;1.20;;
10134;SDS011;5107;48.850;8.924;2023-04-24T04:25:07;1.30;;;1.20;;
10134;SDS011;5107;48.850;8.924;2023-04-24T04:27:33;1.70;;;1.30;;
10134;SDS011;5107;48.850;8.924;2023-04-24T04:29:59;1.40;;;1.30;;
10134;SDS011;5107;48.850;8.924;2023-04-24T04:32:29;1.50;;;1.40;;
10134;SDS011;5107;48.850;8.924;2023-04-24T04:34:56;2.07;;;1.30;;
10134;SDS011;5107;48.850;8.924;2023-04-24T04:37:21;1.63;;;1.53;;
10134;SDS011;5107;48.850;8.924;2023-04-24T04:39:47;2.43;;;1.50;;
10134;SDS011;5107;48.850;8.924;2023-04-24T04:42:12;2.57;;;1.60;;
10134;SDS011;5107;48.850;8.924;2023-04-24T04:44:38;1.60;;;1.50;;
10134;SDS011;5107;48.850;8.924;2023-04-24T04:47:04;1.70;;;1.60;;
10134;SDS011;5107;48.850;8.924;2023-04-24T04:49:30;1.53;;;1.43;;
10134;SDS011;5107;48.850;8.924;2023-04-24T04:51:57;2.73;;;1.67;;
10134;SDS011;5107;48.850;8.924;2023-04-24T04:54:22;1.80;;;1.70;;
10134;SDS011;5107;48.850;8.924;2023-04-24T04:56:49;1.77;;;1.67;;
10134;SDS011;5107;48.850;8.924;2023-04-24T04:59:15;3.43;;;1.77;;
10134;SDS011;5107;48.850;8.924;2023-04-24T05:01:40;6.87;;;2.13;;
10134;SDS011;5107;48.850;8.924;2023-04-24T05:04:06;2.23;;;1.73;;
10134;SDS011;5107;48.850;8.924;2023-04-24T05:06:31;2.13;;;1.93;;
10134;SDS011;5107;48.850;8.924;2023-04-24T05:08:57;3.33;;;1.87;;
10134;SDS011;5107;48.850;8.924;2023-04-24T05:11:22;4.33;;;2.37;;
10134;SDS011;5107;48.850;8.924;2023-04-24T05:13:48;2.63;;;2.00;;
10134;SDS011;5107;48.850;8.924;2023-04-24T05:16:13;2.60;;;2.10;;
10134;SDS011;5107;48.850;8.924;2023-04-24T05:18:39;2.30;;;2.10;;
10134;SDS011;5107;48.850;8.924;2023-04-24T05:21:04;2.43;;;2.00;;
10134;SDS011;5107;48.850;8.924;2023-04-24T05:23:29;3.30;;;2.20;;
10134;SDS011;5107;48.850;8.924;2023-04-24T05:25:55;3.10;;;2.37;;
10134;SDS011;5107;48.850;8.924;2023-04-24T05:28:21;3.83;;;2.27;;
10134;SDS011;5107;48.850;8.924;2023-04-24T05:30:46;2.33;;;2.07;;
10134;SDS011;5107;48.850;8.924;2023-04-24T05:33:11;3.10;;;2.00;;
10134;SDS011;5107;48.850;8.924;2023-04-24T05:35:37;2.13;;;1.93;;
10134;SDS011;5107;48.850;8.924;2023-04-24T05:38:02;2.50;;;2.10;;
10134;SDS011;5107;48.850;8.924;2023-04-24T05:40:28;4.33;;;2.43;;
10134;SDS011;5107;48.850;8.924;2023-04-24T05:42:53;12.33;;;7.80;;
10134;SDS011;5107;48.850;8.924;2023-04-24T05:45:18;7.43;;;5.40;;
10134;SDS011;5107;48.850;8.924;2023-04-24T05:47:44;15.30;;;9.63;;
10134;SDS011;5107;48.850;8.924;2023-04-24T05:50:10;7.80;;;5.67;;
10134;SDS011;5107;48.850;8.924;2023-04-24T05:52:35;20.00;;;14.33;;
10134;SDS011;5107;48.850;8.924;2023-04-24T05:55:01;6.40;;;3.37;;
10134;SDS011;5107;48.850;8.924;2023-04-24T05:57:26;4.33;;;2.47;;
10134;SDS011;5107;48.850;8.924;2023-04-24T05:59:52;2.30;;;2.10;;
10134;SDS011;5107;48.850;8.924;2023-04-24T06:02:17;2.80;;;2.60;;
10134;SDS011;5107;48.850;8.924;2023-04-24T06:04:43;2.50;;;2.30;;
10134;SDS011;5107;48.850;8.924;2023-04-24T06:07:10;2.47;;;2.27;;
10134;SDS011;5107;48.850;8.924;2023-04-24T06:09:36;2.53;;;2.10;;
10134;SDS011;5107;48.850;8.924;2023-04-24T06:12:01;2.53;;;1.90;;
10134;SDS011;5107;48.850;8.924;2023-04-24T06:14:27;1.87;;;1.77;;
10134;SDS011;5107;48.850;8.924;2023-04-24T06:16:53;2.20;;;2.00;;
10134;SDS011;5107;48.850;8.924;2023-04-24T06:19:18;3.50;;;2.33;;
10134;SDS011;5107;48.850;8.924;2023-04-24T06:21:43;4.53;;;2.47;;
10134;SDS011;5107;48.850;8.924;2023-04-24T06:24:09;3.20;;;2.33;;
10134;SDS011;5107;48.850;8.924;2023-04-24T06:26:35;2.80;;;2.07;;
10134;SDS011;5107;48.850;8.924;2023-04-24T06:29:00;2.47;;;2.27;;
10134;SDS011;5107;48.850;8.924;2023-04-24T06:31:25;2.70;;;2.17;;
10134;SDS011;5107;48.850;8.924;2023-04-24T06:33:51;2.23;;;1.90;;
10134;SDS011;5107;48.850;8.924;2023-04-24T06:36:16;3.00;;;2.43;;
10134;SDS011;5107;48.850;8.924;2023-04-24T06:38:42;2.90;;;2.40;;
10134;SDS011;5107;48.850;8.924;2023-04-24T06:41:07;2.47;;;2.17;;
10134;SDS011;5107;48.850;8.924;2023-04-24T06:43:32;2.90;;;2.33;;
10134;SDS011;5107;48.850;8.924;2023-04-24T06:45:59;2.60;;;2.23;;
10134;SDS011;5107;48.850;8.924;2023-04-24T06:48:25;2.70;;;2.50;;
10134;SDS011;5107;48.850;8.924;2023-04-24T06:50:50;2.03;;;1.80;;
10134;SDS011;5107;48.850;8.924;2023-04-24T06:53:16;3.60;;;2.00;;
10134;SDS011;5107;48.850;8.924;2023-04-24T06:55:41;2.47;;;1.83;;
10134;SDS011;5107;48.850;8.924;2023-04-24T06:58:08;2.13;;;1.93;;
10134;SDS011;5107;48.850;8.924;2023-04-24T07:00:34;2.37;;;1.70;;
10134;SDS011;5107;48.850;8.924;2023-04-24T07:02:59;2.70;;;1.93;;
10134;SDS011;5107;48.850;8.924;2023-04-24T07:05:25;2.33;;;1.80;;
10134;SDS011;5107;48.850;8.924;2023-04-24T07:07:50;2.47;;;1.87;;
10134;SDS011;5107;48.850;8.924;2023-04-24T07:10:16;1.90;;;1.63;;
10134;SDS011;5107;48.850;8.924;2023-04-24T07:12:41;2.20;;;2.00;;
10134;SDS011;5107;48.850;8.924;2023-04-24T07:15:07;3.10;;;2.07;;
10134;SDS011;5107;48.850;8.924;2023-04-24T07:17:33;1.60;;;1.50;;
10134;SDS011;5107;48.850;8.924;2023-04-24T07:19:59;1.97;;;1.70;;
10134;SDS011;5107;48.850;8.924;2023-04-24T07:22:25;2.43;;;1.63;;
10134;SDS011;5107;48.850;8.924;2023-04-24T07:24:50;1.60;;;1.50;;
10134;SDS011;5107;48.850;8.924;2023-04-24T07:27:16;2.57;;;1.93;;
10134;SDS011;5107;48.850;8.924;2023-04-24T07:29:41;2.87;;;1.73;;
10134;SDS011;5107;48.850;8.924;2023-04-24T07:32:07;2.33;;;2.03;;
10134;SDS011;5107;48.850;8.924;2023-04-24T07:34:33;1.80;;;1.67;;
10134;SDS011;5107;48.850;8.924;2023-04-24T07:36:58;3.87;;;1.60;;
10134;SDS011;5107;48.850;8.924;2023-04-24T07:39:24;5.10;;;1.93;;
10134;SDS011;5107;48.850;8.924;2023-04-24T07:41:50;2.97;;;2.00;;
10134;SDS011;5107;48.850;8.924;2023-04-24T07:44:15;2.53;;;1.67;;
10134;SDS011;5107;48.850;8.924;2023-04-24T07:46:40;1.80;;;1.70;;
10134;SDS011;5107;48.850;8.924;2023-04-24T07:49:06;1.80;;;1.60;;
10134;SDS011;5107;48.850;8.924;2023-04-24T07:51:31;2.00;;;1.80;;
10134;SDS011;5107;48.850;8.924;2023-04-24T07:53:59;2.03;;;1.63;;
10134;SDS011;5107;48.850;8.924;2023-04-24T07:56:24;2.00;;;1.80;;
10134;SDS011;5107;48.850;8.924;2023-04-24T07:58:50;7.47;;;2.93;;
10134;SDS011;5107;48.850;8.924;2023-04-24T08:01:15;2.40;;;1.53;;
10134;SDS011;5107;48.850;8.924;2023-04-24T08:03:41;2.20;;;1.97;;
10134;SDS011;5107;48.850;8.924;2023-04-24T08:06:06;4.07;;;1.57;;
10134;SDS011;5107;48.850;8.924;2023-04-24T08:08:31;1.83;;;1.57;;
10134;SDS011;5107;48.850;8.924;2023-04-24T08:10:57;1.67;;;1.57;;
10134;SDS011;5107;48.850;8.924;2023-04-24T08:13:23;1.87;;;1.40;;
10134;SDS011;5107;48.850;8.924;2023-04-24T08:15:48;1.87;;;1.53;;
10134;SDS011;5107;48.850;8.924;2023-04-24T08:18:14;1.60;;;1.50;;
10134;SDS011;5107;48.850;8.924;2023-04-24T08:20:40;9.03;;;1.70;;
10134;SDS011;5107;48.850;8.924;2023-04-24T08:23:06;2.57;;;1.70;;
10134;SDS011;5107;48.850;8.924;2023-04-24T08:25:31;1.57;;;1.47;;
10134;SDS011;5107;48.850;8.924;2023-04-24T08:27:57;1.60;;;1.50;;
10134;SDS011;5107;48.850;8.924;2023-04-24T08:30:23;1.73;;;1.50;;
10134;SDS011;5107;48.850;8.924;2023-04-24T08:32:48;2.53;;;1.53;;
10134;SDS011;5107;48.850;8.924;2023-04-24T08:35:13;1.57;;;1.30;;
10134;SDS011;5107;48.850;8.924;2023-04-24T08:37:39;1.60;;;1.50;;
10134;SDS011;5107;48.850;8.924;2023-04-24T08:40:14;3.53;;;1.50;;
10134;SDS011;5107;48.850;8.924;2023-04-24T08:42:43;1.77;;;1.50;;
10134;SDS011;5107;48.850;8.924;2023-04-24T08:45:10;2.23;;;1.30;;
10134;SDS011;5107;48.850;8.924;2023-04-24T08:47:37;1.60;;;1.50;;
10134;SDS011;5107;48.850;8.924;2023-04-24T08:50:03;1.70;;;1.40;;
10134;SDS011;5107;48.850;8.924;2023-04-24T08:52:32;1.47;;;1.37;;
10134;SDS011;5107;48.850;8.924;2023-04-24T08:54:58;1.20;;;1.07;;
10134;SDS011;5107;48.850;8.924;2023-04-24T08:57:25;3.53;;;1.10;;
10134;SDS011;5107;48.850;8.924;2023-04-24T08:59:51;1.77;;;1.20;;
10134;SDS011;5107;48.850;8.924;2023-04-24T09:02:17;0.80;;;0.80;;
10134;SDS011;5107;48.850;8.924;2023-04-24T09:04:43;2.83;;;1.10;;
10134;SDS011;5107;48.850;8.924;2023-04-24T09:07:10;2.50;;;1.10;;
10134;SDS011;5107;48.850;8.924;2023-04-24T09:09:37;4.23;;;1.30;;
10134;SDS011;5107;48.850;8.924;2023-04-24T09:12:03;1.43;;;1.20;;
10134;SDS011;5107;48.850;8.924;2023-04-24T09:14:29;1.10;;;1.00;;
10134;SDS011;5107;48.850;8.924;2023-04-24T09:16:56;1.30;;;1.20;;
10134;SDS011;5107;48.850;8.924;2023-04-24T09:19:22;1.60;;;1.10;;
10134;SDS011;5107;48.850;8.924;2023-04-24T09:21:47;4.97;;;1.53;;
10134;SDS011;5107;48.850;8.924;2023-04-24T09:24:20;1.40;;;1.20;;
10134;SDS011;5107;48.850;8.924;2023-04-24T09:26:55;2.00;;;1.00;;
10134;SDS011;5107;48.850;8.924;2023-04-24T09:29:26;3.13;;;1.30;;
10134;SDS011;5107;48.850;8.924;2023-04-24T09:31:52;1.17;;;1.00;;
10134;SDS011;5107;48.850;8.924;2023-04-24T09:34:21;2.37;;;1.20;;
10134;SDS011;5107;48.850;8.924;2023-04-24T09:36:48;5.30;;;1.17;;
10134;SDS011;5107;48.850;8.924;2023-04-24T09:39:14;1.73;;;1.40;;
10134;SDS011;5107;48.850;8.924;2023-04-24T09:41:48;1.60;;;1.50;;
10134;SDS011;5107;48.850;8.924;2023-04-24T09:44:18;1.10;;;1.10;;
10134;SDS011;5107;48.850;8.924;2023-04-24T09:46:54;3.00;;;1.50;;
10134;SDS011;5107;48.850;8.924;2023-04-24T09:49:25;2.27;;;1.57;;
10134;SDS011;5107;48.850;8.924;2023-04-24T09:51:51;2.30;;;1.70;;
10134;SDS011;5107;48.850;8.924;2023-04-24T09:54:18;2.17;;;1.30;;
10134;SDS011;5107;48.850;8.924;2023-04-24T09:56:48;2.30;;;1.50;;
10134;SDS011;5107;48.850;8.924;2023-04-24T09:59:16;1.60;;;1.50;;
10134;SDS011;5107;48.850;8.924;2023-04-24T10:01:43;2.47;;;1.73;;
10134;SDS011;5107;48.850;8.924;2023-04-24T10:04:23;2.00;;;1.50;;
10134;SDS011;5107;48.850;8.924;2023-04-24T10:06:50;1.30;;;1.20;;
10134;SDS011;5107;48.850;8.924;2023-04-24T10:09:17;2.73;;;1.63;;
10134;SDS011;5107;48.850;8.924;2023-04-24T10:11:45;1.27;;;1.17;;
10134;SDS011;5107;48.850;8.924;2023-04-24T10:14:12;1.60;;;1.40;;
10134;SDS011;5107;48.850;8.924;2023-04-24T10:16:45;3.40;;;1.20;;
10134;SDS011;5107;48.850;8.924;2023-04-24T10:19:12;2.03;;;1.60;;
10134;SDS011;5107;48.850;8.924;2023-04-24T10:21:38;2.30;;;1.50;;
10134;SDS011;5107;48.850;8.924;2023-04-24T10:24:07;2.70;;;1.70;;
10134;SDS011;5107;48.850;8.924;2023-04-24T10:26:34;5.00;;;1.43;;
10134;SDS011;5107;48.850;8.924;2023-04-24T10:29:00;1.93;;;1.40;;
10134;SDS011;5107;48.850;8.924;2023-04-24T10:31:26;2.40;;;1.30;;
10134;SDS011;5107;48.850;8.924;2023-04-24T10:33:56;4.17;;;1.97;;
10134;SDS011;5107;48.850;8.924;2023-04-24T10:36:22;1.60;;;1.40;;
10134;SDS011;5107;48.850;8.924;2023-04-24T10:38:51;1.77;;;1.50;;
10134;SDS011;5107;48.850;8.924;2023-04-24T10:41:20;2.77;;;1.70;;
10134;SDS011;5107;48.850;8.924;2023-04-24T10:43:48;1.50;;;1.40;;
10134;SDS011;5107;48.850;8.924;2023-04-24T10:46:34;3.50;;;1.50;;
10134;SDS011;5107;48.850;8.924;2023-04-24T10:49:03;1.60;;;1.50;;
10134;SDS011;5107;48.850;8.924;2023-04-24T10:51:50;3.33;;;1.43;;
10134;SDS011;5107;48.850;8.924;2023-04-24T10:54:34;1.40;;;1.30;;
10134;SDS011;5107;48.850;8.924;2023-04-24T10:59:45;1.50;;;1.37;;
10134;SDS011;5107;48.850;8.924;2023-04-24T11:02:16;4.23;;;1.40;;
10134;SDS011;5107;48.850;8.924;2023-04-24T11:04:43;1.60;;;1.50;;
10134;SDS011;5107;48.850;8.924;2023-04-24T11:07:10;2.23;;;1.43;;
10134;SDS011;5107;48.850;8.924;2023-04-24T11:09:36;2.47;;;1.70;;
10134;SDS011;5107;48.850;8.924;2023-04-24T11:12:05;2.43;;;2.13;;
10134;SDS011;5107;48.850;8.924;2023-04-24T11:17:30;3.37;;;1.53;;
10134;SDS011;5107;48.850;8.924;2023-04-24T11:20:04;1.93;;;1.50;;
10134;SDS011;5107;48.850;8.924;2023-04-24T11:22:37;3.67;;;1.60;;
10134;SDS011;5107;48.850;8.924;2023-04-24T11:25:05;3.40;;;2.10;;
10134;SDS011;5107;48.850;8.924;2023-04-24T11:27:32;2.60;;;1.40;;
10134;SDS011;5107;48.850;8.924;2023-04-24T11:30:04;1.57;;;1.47;;
10134;SDS011;5107;48.850;8.924;2023-04-24T11:37:50;1.63;;;1.53;;
10134;SDS011;5107;48.850;8.924;2023-04-24T11:40:16;2.47;;;1.37;;
10134;SDS011;5107;48.850;8.924;2023-04-24T11:42:52;1.53;;;1.43;;
10134;SDS011;5107;48.850;8.924;2023-04-24T11:45:24;2.60;;;1.67;;
10134;SDS011;5107;48.850;8.924;2023-04-24T11:47:51;3.07;;;2.30;;
10134;SDS011;5107;48.850;8.924;2023-04-24T11:50:17;7.40;;;1.87;;
10134;SDS011;5107;48.850;8.924;2023-04-24T11:52:44;2.40;;;2.03;;
10134;SDS011;5107;48.850;8.924;2023-04-24T11:57:47;1.80;;;1.43;;
10134;SDS011;5107;48.850;8.924;2023-04-24T12:00:20;2.50;;;1.60;;
10134;SDS011;5107;48.850;8.924;2023-04-24T12:02:50;2.07;;;1.57;;
10134;SDS011;5107;48.850;8.924;2023-04-24T12:05:20;2.10;;;1.60;;
10134;SDS011;5107;48.850;8.924;2023-04-24T12:07:45;1.83;;;1.53;;
10134;SDS011;5107;48.850;8.924;2023-04-24T12:10:11;4.00;;;1.80;;
10134;SDS011;5107;48.850;8.924;2023-04-24T12:12:36;1.87;;;1.60;;
10134;SDS011;5107;48.850;8.924;2023-04-24T12:15:05;2.80;;;2.27;;
10134;SDS011;5107;48.850;8.924;2023-04-24T12:17:32;1.90;;;1.70;;
10134;SDS011;5107;48.850;8.924;2023-04-24T12:19:59;1.63;;;1.53;;
10134;SDS011;5107;48.850;8.924;2023-04-24T12:22:26;5.10;;;2.07;;
10134;SDS011;5107;48.850;8.924;2023-04-24T12:24:55;1.90;;;1.70;;
10134;SDS011;5107;48.850;8.924;2023-04-24T12:27:29;2.30;;;2.10;;
10134;SDS011;5107;48.850;8.924;2023-04-24T12:29:56;1.80;;;1.70;;
10134;SDS011;5107;48.850;8.924;2023-04-24T12:32:23;2.30;;;1.60;;
10134;SDS011;5107;48.850;8.924;2023-04-24T12:34:50;1.77;;;1.67;;
10134;SDS011;5107;48.850;8.924;2023-04-24T12:37:17;2.70;;;1.57;;
10134;SDS011;5107;48.850;8.924;2023-04-24T12:40:25;1.70;;;1.60;;
10134;SDS011;5107;48.850;8.924;2023-04-24T12:42:32;2.10;;;1.43;;
10134;SDS011;5107;48.850;8.924;2023-04-24T12:44:59;1.80;;;1.70;;
10134;SDS011;5107;48.850;8.924;2023-04-24T12:47:26;2.47;;;1.70;;
10134;SDS011;5107;48.850;8.924;2023-04-24T12:49:53;1.90;;;1.60;;
10134;SDS011;5107;48.850;8.924;2023-04-24T12:52:20;2.90;;;1.90;;
10134;SDS011;5107;48.850;8.924;2023-04-24T12:54:46;3.03;;;2.40;;
10134;SDS011;5107;48.850;8.924;2023-04-24T12:57:11;3.50;;;2.37;;
10134;SDS011;5107;48.850;8.924;2023-04-24T12:59:37;5.93;;;2.07;;
10134;SDS011;5107;48.850;8.924;2023-04-24T13:02:04;2.97;;;2.70;;
10134;SDS011;5107;48.850;8.924;2023-04-24T13:04:29;2.63;;;2.33;;
10134;SDS011;5107;48.850;8.924;2023-04-24T13:06:55;2.60;;;2.40;;
10134;SDS011;5107;48.850;8.924;2023-04-24T13:09:20;2.40;;;2.17;;
10134;SDS011;5107;48.850;8.924;2023-04-24T13:11:46;2.87;;;2.23;;
10134;SDS011;5107;48.850;8.924;2023-04-24T13:14:11;3.90;;;2.73;;
10134;SDS011;5107;48.850;8.924;2023-04-24T13:16:37;2.30;;;2.10;;
10134;SDS011;5107;48.850;8.924;2023-04-24T13:19:02;2.40;;;2.20;;
10134;SDS011;5107;48.850;8.924;2023-04-24T13:21:28;2.63;;;2.10;;
10134;SDS011;5107;48.850;8.924;2023-04-24T13:23:55;2.57;;;2.10;;
10134;SDS011;5107;48.850;8.924;2023-04-24T13:26:21;4.43;;;2.13;;
10134;SDS011;5107;48.850;8.924;2023-04-24T13:28:46;2.77;;;2.40;;
10134;SDS011;5107;48.850;8.924;2023-04-24T13:31:11;2.20;;;2.00;;
10134;SDS011;5107;48.850;8.924;2023-04-24T13:33:37;4.90;;;3.33;;
10134;SDS011;5107;48.850;8.924;2023-04-24T13:36:02;2.47;;;2.03;;
10134;SDS011;5107;48.850;8.924;2023-04-24T13:38:28;4.20;;;2.33;;
10134;SDS011;5107;48.850;8.924;2023-04-24T13:40:53;8.23;;;2.27;;
10134;SDS011;5107;48.850;8.924;2023-04-24T13:43:19;2.20;;;2.00;;
10134;SDS011;5107;48.850;8.924;2023-04-24T13:45:44;2.40;;;2.17;;
10134;SDS011;5107;48.850;8.924;2023-04-24T13:48:09;2.03;;;1.93;;
10134;SDS011;5107;48.850;8.924;2023-04-24T13:50:35;4.33;;;2.20;;
10134;SDS011;5107;48.850;8.924;2023-04-24T13:53:01;4.67;;;1.93;;
10134;SDS011;5107;48.850;8.924;2023-04-24T13:55:27;2.33;;;2.13;;
10134;SDS011;5107;48.850;8.924;2023-04-24T13:57:52;3.03;;;2.20;;
10134;SDS011;5107;48.850;8.924;2023-04-24T14:00:20;2.77;;;2.40;;
10134;SDS011;5107;48.850;8.924;2023-04-24T14:02:46;3.30;;;2.07;;
10134;SDS011;5107;48.850;8.924;2023-04-24T14:05:12;2.37;;;2.00;;
10134;SDS011;5107;48.850;8.924;2023-04-24T14:07:40;2.53;;;2.10;;
10134;SDS011;5107;48.850;8.924;2023-04-24T14:10:05;3.63;;;2.43;;
10134;SDS011;5107;48.850;8.924;2023-04-24T14:12:31;1.90;;;1.70;;
10134;SDS011;5107;48.850;8.924;2023-04-24T14:14:56;3.30;;;2.20;;
10134;SDS011;5107;48.850;8.924;2023-04-24T14:17:22;3.13;;;1.93;;
10134;SDS011;5107;48.850;8.924;2023-04-24T14:19:47;2.27;;;2.00;;
10134;SDS011;5107;48.850;8.924;2023-04-24T14:22:12;4.60;;;2.07;;
10134;SDS011;5107;48.850;8.924;2023-04-24T14:24:38;2.23;;;1.80;;
10134;SDS011;5107;48.850;8.924;2023-04-24T14:27:03;2.90;;;1.93;;
10134;SDS011;5107;48.850;8.924;2023-04-24T14:29:28;3.50;;;2.20;;
10134;SDS011;5107;48.850;8.924;2023-04-24T14:31:54;2.97;;;2.20;;
10134;SDS011;5107;48.850;8.924;2023-04-24T14:34:19;2.53;;;1.50;;
10134;SDS011;5107;48.850;8.924;2023-04-24T14:36:45;2.30;;;2.10;;
10134;SDS011;5107;48.850;8.924;2023-04-24T14:39:10;2.10;;;1.90;;
10134;SDS011;5107;48.850;8.924;2023-04-24T14:41:35;2.60;;;1.87;;
10134;SDS011;5107;48.850;8.924;2023-04-24T14:44:02;2.47;;;1.80;;
10134;SDS011;5107;48.850;8.924;2023-04-24T14:46:28;2.50;;;2.00;;
10134;SDS011;5107;48.850;8.924;2023-04-24T14:48:55;3.63;;;2.00;;
10134;SDS011;5107;48.850;8.924;2023-04-24T14:51:21;2.47;;;1.93;;
10134;SDS011;5107;48.850;8.924;2023-04-24T14:53:46;2.37;;;2.00;;
10134;SDS011;5107;48.850;8.924;2023-04-24T14:56:12;2.40;;;2.20;;
10134;SDS011;5107;48.850;8.924;2023-04-24T14:58:38;2.03;;;1.83;;
10134;SDS011;5107;48.850;8.924;2023-04-24T15:01:04;3.57;;;1.93;;
10134;SDS011;5107;48.850;8.924;2023-04-24T15:03:30;1.70;;;1.43;;
10134;SDS011;5107;48.850;8.924;2023-04-24T15:05:55;2.37;;;1.63;;
10134;SDS011;5107;48.850;8.924;2023-04-24T15:08:21;2.23;;;1.83;;